KAFO

Afton Municipal Airport

Afton, Wyoming, USA
METAR KAFO 172035Z AUTO 36007KT 340V040 10SM CLR 13/M03 A3030 RMK AO2
Observed Flight Rules
Oct-17 @ 20:35 UTC (22 minutes ago) Visual Flight Rules
Wind Visibility Clouds
360° at 7 knots 10 miles
  • Clear skies
Temperatures Readings
Current 13°C / 55°F
Dewpoint -3°C / 27°F
Humidity 33%
Altimeter 30.3" Hg
Pressure 1026 hPa
Elevation 1897
METAR KAFO 172035Z AUTO 36007KT 340V040 10SM CLR 13/M03 A3030 RMK AO2
Observed Flight Rules
Oct-17 @ 20:35 UTC
(22 minutes ago)
VFR
Wind Visibility
360° at 7 knots 10 miles
Clouds
  • Clear skies
Temperature Dewpoint
13°C / 55°F -3°C / 27°F
Humidity Altimeter Pressure
33% 30.3" Hg 1026 hPa